Time;durP1;ratioP1;P1;durP2;ratioP2;P2;SDS_P1;SDS_P2;PMS_P1;PMS_P2;Temp;Humidity;BMP_temperature;BMP_pressure;BME280_temperature;BME280_humidity;BME280_pressure;Samples;Min_cycle;Max_cycle;Signal;HPM_P1;HPM_P2
2022/08/22 00:00:33;;;;;;;21.10;3.77;;;;;;;21.23;74.23;100016.66;1660048;86;21060;-55
2022/08/22 00:03:41;;;;;;;23.70;4.43;;;;;;;21.24;74.64;100016.91;1660150;86;21056;-59
2022/08/22 00:06:34;;;;;;;19.90;3.40;;;;;;;21.21;74.46;100016.89;1663287;86;21058;-55
2022/08/22 00:09:28;;;;;;;21.77;3.40;;;;;;;21.22;74.25;100015.07;1661278;86;22651;-56
2022/08/22 00:12:29;;;;;;;22.87;4.10;;;;;;;21.24;74.53;100015.59;1661864;86;20968;-56
2022/08/22 00:15:19;;;;;;;17.87;3.10;;;;;;;21.25;74.84;100007.90;1663472;86;21051;-55
2022/08/22 00:18:06;;;;;;;26.63;4.37;;;;;;;21.24;75.10;100012.94;1655904;86;21448;-55
2022/08/22 00:20:51;;;;;;;29.97;4.70;;;;;;;21.20;75.02;100020.61;1663859;86;21042;-56
2022/08/22 00:23:42;;;;;;;24.30;4.00;;;;;;;21.18;75.15;100013.46;1663943;86;21890;-54
2022/08/22 00:26:20;;;;;;;18.12;3.67;;;;;;;21.19;74.92;100016.37;1663772;86;20896;-64
2022/08/22 00:29:05;;;;;;;21.37;3.80;;;;;;;21.17;75.50;100013.17;1663441;86;21533;-54
2022/08/22 00:31:42;;;;;;;22.37;3.90;;;;;;;21.20;75.08;100011.86;1663725;86;21007;-54
2022/08/22 00:34:26;;;;;;;21.90;3.90;;;;;;;21.20;74.27;100003.91;1662669;86;21105;-55
2022/08/22 00:37:11;;;;;;;23.37;3.57;;;;;;;21.23;73.96;100006.05;1662808;86;21277;-55
2022/08/22 00:39:58;;;;;;;22.20;3.97;;;;;;;21.23;74.27;100008.70;1662088;86;20912;-65
2022/08/22 00:43:11;;;;;;;23.80;4.27;;;;;;;21.19;74.15;100017.70;1662268;86;20971;-54
2022/08/22 00:46:08;;;;;;;19.50;3.43;;;;;;;21.17;74.01;100015.82;1663541;86;21023;-54
2022/08/22 00:49:08;;;;;;;21.40;4.20;;;;;;;21.13;73.70;100018.19;1663934;86;22046;-56
2022/08/22 00:52:05;;;;;;;20.90;4.13;;;;;;;21.08;74.48;100020.83;1663525;86;21089;-62
2022/08/22 00:55:18;;;;;;;17.37;3.70;;;;;;;21.03;75.85;100026.11;1663586;86;20996;-54
2022/08/22 00:58:21;;;;;;;19.43;4.30;;;;;;;20.96;76.90;100029.52;1663783;86;20928;-54
2022/08/22 01:00:52;;;;;;;28.77;5.37;;;;;;;20.90;78.57;100035.30;1663640;86;21509;-55
2022/08/22 01:03:42;;;;;;;;;;;;;;;20.83;81.19;100037.91;1666242;86;20992;-56
2022/08/22 01:06:35;;;;;;;19.03;3.87;;;;;;;20.76;84.14;100042.62;1663384;86;21872;-56
2022/08/22 01:09:20;;;;;;;13.83;4.37;;;;;;;20.66;85.63;100050.00;1663986;86;21043;-56
2022/08/22 01:11:58;;;;;;;23.33;4.07;;;;;;;20.53;87.04;100042.47;1630142;86;22019;-55
2022/08/22 01:14:39;;;;;;;19.87;4.37;;;;;;;20.45;87.06;100046.36;1664418;86;21365;-56
2022/08/22 01:17:23;;;;;;;19.42;3.85;;;;;;;20.44;86.31;100046.09;1661697;86;21018;-65
2022/08/22 01:20:40;;;;;;;24.03;4.60;;;;;;;20.44;86.35;100048.73;1663453;86;21278;-55
2022/08/22 01:23:46;;;;;;;19.70;4.47;;;;;;;20.37;86.61;100047.63;1662539;86;21018;-56
2022/08/22 01:26:50;;;;;;;22.67;4.43;;;;;;;20.34;87.17;100046.00;1662949;86;21020;-56
2022/08/22 01:29:55;;;;;;;17.73;3.63;;;;;;;20.30;85.96;100051.00;1632416;86;21093;-67
2022/08/22 01:32:56;;;;;;;18.33;4.40;;;;;;;20.33;84.44;100041.77;1661979;86;21050;-57
2022/08/22 01:36:00;;;;;;;25.30;4.73;;;;;;;20.32;83.95;100038.33;1663050;86;21805;-56
2022/08/22 01:38:51;;;;;;;24.43;4.30;;;;;;;20.37;82.70;100041.53;1663141;86;21150;-57
2022/08/22 01:41:32;;;;;;;26.03;4.57;;;;;;;20.38;82.54;100049.23;1662845;86;21516;-59
2022/08/22 01:44:21;;;;;;;;;;;;;;;20.42;82.05;100050.86;1666073;86;21444;-57
2022/08/22 01:47:11;;;;;;;19.53;3.70;;;;;;;20.40;82.83;100056.39;1663018;86;20478;-56
2022/08/22 01:49:49;;;;;;;15.27;3.57;;;;;;;20.35;83.65;100060.86;1663303;86;21465;-56
2022/08/22 01:52:42;;;;;;;23.00;4.23;;;;;;;20.32;83.41;100063.47;1662281;86;21564;-57
2022/08/22 01:55:34;;;;;;;20.90;3.77;;;;;;;20.31;84.46;100069.03;1663113;86;21020;-57
2022/08/22 01:58:18;;;;;;;20.00;3.93;;;;;;;20.28;85.43;100068.20;1662779;86;22364;-60
2022/08/22 02:00:56;;;;;;;31.50;4.53;;;;;;;20.23;86.47;100070.78;1663702;86;21098;-58
2022/08/22 02:03:28;;;;;;;20.20;3.37;;;;;;;20.24;86.61;100068.44;1663114;86;21884;-63
2022/08/22 02:06:10;;;;;;;20.67;3.73;;;;;;;20.22;87.12;100075.81;1663243;86;20978;-57
2022/08/22 02:08:43;;;;;;;;;;;;;;;20.19;88.09;100077.10;1664281;86;21081;-65
2022/08/22 02:11:14;;;;;;;18.70;3.13;;;;;;;20.14;89.05;100072.56;1663325;86;20201;-64
2022/08/22 02:14:18;;;;;;;22.83;5.23;;;;;;;20.10;90.61;100068.03;1638087;86;21473;-56
2022/08/22 02:16:56;;;;;;;19.13;3.97;;;;;;;20.04;92.14;100080.43;1663398;86;21124;-56
2022/08/22 02:19:40;;;;;;;17.37;3.23;;;;;;;19.93;94.19;100084.02;1663127;86;21145;-54
2022/08/22 02:22:39;;;;;;;22.80;4.57;;;;;;;19.89;96.01;100084.24;1662740;86;21134;-55
2022/08/22 02:25:31;;;;;;;21.27;4.30;;;;;;;19.80;97.43;100079.09;1662149;86;21022;-54
2022/08/22 02:28:15;;;;;;;19.47;3.23;;;;;;;19.74;98.87;100089.37;1662847;86;21043;-64
2022/08/22 02:30:53;;;;;;;28.13;4.83;;;;;;;19.66;100.00;100091.39;1663209;86;22106;-54
2022/08/22 02:33:57;;;;;;;19.20;4.70;;;;;;;19.56;100.00;100093.88;1662762;86;21524;-55
2022/08/22 02:36:42;;;;;;;22.73;3.83;;;;;;;19.55;100.00;100094.94;1663078;86;21114;-54
2022/08/22 02:39:20;;;;;;;18.60;3.50;;;;;;;19.57;100.00;100098.11;1662491;86;21189;-57
2022/08/22 02:41:58;;;;;;;17.80;2.90;;;;;;;19.54;100.00;100090.67;1662940;86;21073;-56
2022/08/22 02:44:37;;;;;;;16.90;3.20;;;;;;;19.52;100.00;100092.77;1663153;86;21248;-65
2022/08/22 02:47:11;;;;;;;18.50;3.87;;;;;;;19.49;100.00;100086.65;1662204;86;21380;-57
2022/08/22 02:49:50;;;;;;;19.17;3.37;;;;;;;19.45;100.00;100092.16;1663406;86;21129;-55
2022/08/22 02:52:54;;;;;;;18.83;3.00;;;;;;;19.43;100.00;100092.91;1662176;86;20912;-56
2022/08/22 02:55:54;;;;;;;21.83;4.47;;;;;;;19.44;100.00;100098.49;1663307;86;20908;-56
2022/08/22 02:58:53;;;;;;;20.30;4.00;;;;;;;19.44;100.00;100086.59;1647973;86;22329;-55
2022/08/22 03:01:28;;;;;;;14.83;2.90;;;;;;;19.44;100.00;100087.92;1662351;86;20955;-55
2022/08/22 03:04:33;;;;;;;16.57;2.57;;;;;;;19.44;100.00;100095.33;1661998;86;22234;-55
2022/08/22 03:07:24;;;;;;;18.37;3.17;;;;;;;19.48;100.00;100096.16;1662403;86;21154;-58
2022/08/22 03:10:21;;;;;;;19.48;3.35;;;;;;;19.60;100.00;100102.13;1662893;86;20860;-55
2022/08/22 03:13:15;;;;;;;18.33;4.50;;;;;;;19.67;100.00;100099.59;1663537;86;22123;-55
2022/08/22 03:15:55;;;;;;;11.77;2.90;;;;;;;19.79;100.00;100107.40;1662799;86;20959;-61
2022/08/22 03:18:53;;;;;;;13.83;3.60;;;;;;;19.86;100.00;100093.99;1663732;86;20971;-55
2022/08/22 03:21:37;;;;;;;20.63;3.50;;;;;;;19.93;100.00;100101.21;1662737;86;20988;-56
2022/08/22 03:24:15;;;;;;;17.93;4.47;;;;;;;20.04;100.00;100098.95;1663948;86;20976;-55
2022/08/22 03:26:59;;;;;;;16.57;2.93;;;;;;;20.17;100.00;100101.19;1660943;86;21498;-65
2022/08/22 03:29:39;;;;;;;15.30;3.60;;;;;;;20.27;100.00;100099.17;1663973;86;21074;-55
2022/08/22 03:32:21;;;;;;;19.10;3.20;;;;;;;20.40;98.44;100098.75;1638901;86;21030;-54
2022/08/22 03:35:07;;;;;;;10.50;2.13;;;;;;;20.60;97.35;100093.38;1663985;86;21448;-55
2022/08/22 03:37:40;;;;;;;13.83;2.50;;;;;;;20.91;94.86;100097.06;1663039;86;21528;-54
2022/08/22 03:40:31;;;;;;;13.10;2.73;;;;;;;21.48;87.44;100099.49;1662873;86;21255;-56
2022/08/22 03:43:20;;;;;;;19.00;3.52;;;;;;;22.03;78.89;100092.78;1663893;86;21083;-54
2022/08/22 03:46:26;;;;;;;13.87;2.77;;;;;;;22.56;71.14;100100.82;1663062;86;21423;-55
2022/08/22 03:49:27;;;;;;;11.60;2.00;;;;;;;23.09;66.18;100098.41;1662767;86;20996;-58
2022/08/22 03:53:05;;;;;;;13.05;2.52;;;;;;;23.62;61.19;100095.55;1663756;86;20967;-55
2022/08/22 03:55:27;;;;;;;14.23;3.37;;;;;;;24.03;58.46;100102.81;1660021;86;21295;-55
2022/08/22 03:58:23;;;;;;;13.08;2.77;;;;;;;24.47;55.84;100091.36;1649270;86;38410;-54
2022/08/22 04:01:17;;;;;;;15.00;2.77;;;;;;;24.82;53.47;100088.65;1663055;86;21035;-54
2022/08/22 04:04:13;;;;;;;14.33;2.33;;;;;;;25.07;51.60;100099.03;1663601;86;21573;-54
2022/08/22 04:07:16;;;;;;;20.60;2.67;;;;;;;25.28;50.85;100096.98;1660365;86;20972;-55
2022/08/22 04:10:25;;;;;;;16.30;2.27;;;;;;;25.55;49.34;100100.93;1661035;86;21153;-56
2022/08/22 04:13:04;;;;;;;16.77;2.67;;;;;;;25.72;48.16;100099.89;1697234;84;21053;-57
2022/08/22 04:15:54;;;;;;;12.47;2.80;;;;;;;25.87;47.97;100099.70;1696622;84;21018;-63
2022/08/22 04:18:54;;;;;;;11.30;2.80;;;;;;;26.04;47.21;100102.44;1696775;84;21602;-54
2022/08/22 04:21:52;;;;;;;12.53;2.40;;;;;;;26.19;46.36;100090.18;1696705;84;21496;-54
2022/08/22 04:24:34;;;;;;;11.00;2.70;;;;;;;26.33;46.13;100098.23;1696346;84;21404;-63
2022/08/22 04:27:12;;;;;;;13.00;2.62;;;;;;;26.53;45.58;100099.83;1696935;83;21009;-54
2022/08/22 04:30:03;;;;;;;14.90;2.77;;;;;;;26.72;45.04;100100.56;1695962;84;20942;-57
2022/08/22 04:32:44;;;;;;;10.25;2.50;;;;;;;26.93;44.25;100106.33;1696501;84;22702;-58
2022/08/22 04:35:28;;;;;;;12.47;2.55;;;;;;;27.05;43.44;100101.31;1696299;84;20943;-55
2022/08/22 04:38:00;;;;;;;8.50;2.42;;;;;;;27.28;43.31;100103.57;1696693;84;21481;-55
2022/08/22 04:40:35;;;;;;;10.50;2.65;;;;;;;27.46;42.88;100092.48;1696339;83;21052;-55
2022/08/22 04:43:08;;;;;;;9.23;2.25;;;;;;;27.55;42.40;100094.72;1697382;84;20947;-56
2022/08/22 04:45:41;;;;;;;15.48;2.50;;;;;;;27.73;41.82;100097.02;1695422;84;20891;-57
2022/08/22 04:48:19;;;;;;;14.18;3.17;;;;;;;27.99;41.69;100096.45;1696764;84;21076;-56
2022/08/22 04:51:18;;;;;;;10.38;2.75;;;;;;;28.18;41.21;100087.70;1696449;84;21871;-57
2022/08/22 04:53:56;;;;;;;14.18;3.12;;;;;;;28.33;40.52;100108.77;1696853;84;21771;-56
2022/08/22 04:57:05;;;;;;;9.90;3.15;;;;;;;28.56;39.56;100103.42;1664706;86;21521;-56
2022/08/22 04:59:33;;;;;;;7.97;2.30;;;;;;;28.64;39.40;100093.32;1698598;84;21051;-56
2022/08/22 05:02:05;;;;;;;8.05;2.52;;;;;;;28.85;39.16;100108.32;1699162;84;21056;-55
2022/08/22 05:04:41;;;;;;;8.78;2.87;;;;;;;28.98;38.88;100098.61;1699165;84;21217;-56
2022/08/22 05:07:15;;;;;;;13.48;3.00;;;;;;;29.04;38.38;100108.11;1694375;83;20998;-58
2022/08/22 05:09:50;;;;;;;12.50;2.40;;;;;;;29.18;38.65;100106.13;1694549;83;21901;-55
2022/08/22 05:12:24;;;;;;;10.10;2.50;;;;;;;29.37;38.01;100108.55;1693997;84;21506;-63
2022/08/22 05:14:56;;;;;;;7.90;2.42;;;;;;;29.51;37.54;100105.71;1693950;83;21658;-57
2022/08/22 05:17:25;;;;;;;8.73;2.12;;;;;;;29.68;37.27;100099.62;1694823;84;21411;-55
2022/08/22 05:19:56;;;;;;;5.87;1.95;;;;;;;29.85;37.64;100109.58;1694421;84;21491;-64
2022/08/22 05:22:30;;;;;;;7.92;2.17;;;;;;;30.09;37.15;100099.16;1694130;84;20953;-56
2022/08/22 05:25:01;;;;;;;9.55;2.65;;;;;;;30.23;36.23;100114.60;1694470;84;20983;-55
2022/08/22 05:27:32;;;;;;;6.10;2.15;;;;;;;30.33;36.13;100102.70;1694679;84;21084;-55
2022/08/22 05:30:11;;;;;;;;;;;;;;;30.42;35.92;100102.16;1696683;84;21769;-55
2022/08/22 05:33:02;;;;;;;10.48;2.05;;;;;;;30.49;35.98;100107.02;1694562;84;20265;-55
2022/08/22 05:35:38;;;;;;;6.60;2.25;;;;;;;30.57;36.00;100106.77;1694591;84;21148;-55
2022/08/22 05:38:08;;;;;;;5.15;2.05;;;;;;;30.68;34.88;100097.23;1694223;84;21025;-56
2022/08/22 05:40:36;;;;;;;5.62;1.80;;;;;;;30.73;34.74;100106.50;1694453;83;20942;-56
2022/08/22 05:43:03;;;;;;;7.85;1.70;;;;;;;30.75;34.47;100094.87;1693563;84;21168;-57
2022/08/22 05:45:32;;;;;;;9.08;1.90;;;;;;;30.81;34.09;100102.23;1694528;84;21069;-62
2022/08/22 05:48:10;;;;;;;9.70;2.50;;;;;;;30.79;34.16;100105.23;1694368;83;21066;-55
2022/08/22 05:50:45;;;;;;;5.00;1.82;;;;;;;30.91;33.83;100093.78;1694504;84;21017;-56
2022/08/22 05:53:28;;;;;;;3.62;1.77;;;;;;;30.92;33.93;100114.22;1694464;84;22416;-56
2022/08/22 05:56:12;;;;;;;7.15;1.90;;;;;;;31.00;33.82;100100.72;1694348;84;21797;-56
2022/08/22 05:59:02;;;;;;;6.42;1.92;;;;;;;31.04;33.26;100105.46;1694025;83;20989;-55
2022/08/22 06:01:53;;;;;;;6.78;2.20;;;;;;;30.95;33.63;100112.20;1694514;84;21460;-55
2022/08/22 06:04:37;;;;;;;7.58;2.22;;;;;;;31.15;33.29;100104.77;1694233;84;20954;-64
2022/08/22 06:07:19;;;;;;;10.28;2.05;;;;;;;31.23;32.90;100114.70;1686749;83;20973;-57
2022/08/22 06:09:58;;;;;;;3.00;1.32;;;;;;;31.25;33.07;100106.28;1694092;84;21223;-58
2022/08/22 06:12:42;;;;;;;8.63;1.92;;;;;;;31.41;33.02;100103.88;1694385;84;21135;-56
2022/08/22 06:15:19;;;;;;;19.17;2.47;;;;;;;31.64;32.73;100106.48;1694329;84;21137;-65
2022/08/22 06:17:52;;;;;;;9.18;1.70;;;;;;;31.88;31.06;100118.54;1694667;84;21077;-55
2022/08/22 06:20:24;;;;;;;5.78;1.72;;;;;;;31.69;30.34;100094.16;1694581;83;21456;-56
2022/08/22 06:22:55;;;;;;;4.17;1.40;;;;;;;31.49;31.57;100101.67;1674782;84;21256;-56
2022/08/22 06:25:27;;;;;;;5.37;2.00;;;;;;;31.53;30.61;100111.24;1674351;84;20871;-55
2022/08/22 06:27:54;;;;;;;3.67;1.85;;;;;;;31.48;30.50;100105.47;1693175;84;20982;-55
2022/08/22 06:30:22;;;;;;;6.83;1.67;;;;;;;31.43;31.07;100115.09;1695262;84;20958;-56
2022/08/22 06:32:53;;;;;;;5.75;1.77;;;;;;;31.42;30.36;100105.44;1695630;84;21500;-65
2022/08/22 06:36:29;;;;;;;8.08;2.00;;;;;;;31.38;29.62;100112.59;1694826;83;22205;-56
2022/08/22 06:38:01;;;;;;;4.70;2.02;;;;;;;31.29;29.38;100110.47;1690760;84;21025;-56
2022/08/22 06:40:30;;;;;;;5.05;2.12;;;;;;;31.34;29.97;100110.33;1671210;84;21410;-57
2022/08/22 06:42:57;;;;;;;4.53;1.57;;;;;;;31.54;29.55;100110.91;1693691;84;20998;-60
2022/08/22 06:45:28;;;;;;;7.62;1.60;;;;;;;31.59;29.03;100115.30;1694491;83;22016;-56
2022/08/22 06:47:58;;;;;;;;;;;;;;;31.55;29.43;100129.20;1677040;84;22196;-56
2022/08/22 06:50:35;;;;;;;5.58;1.85;;;;;;;31.60;29.09;100106.13;1692244;83;20087;-57
2022/08/22 06:53:19;;;;;;;8.15;1.60;;;;;;;31.62;29.19;100116.78;1694010;84;21856;-55
2022/08/22 06:55:56;;;;;;;5.10;1.40;;;;;;;31.62;28.95;100122.17;1683941;84;20962;-55
2022/08/22 06:58:39;;;;;;;10.32;2.02;;;;;;;31.60;28.89;100109.61;1694202;84;21088;-63
2022/08/22 07:01:10;;;;;;;7.15;2.08;;;;;;;31.48;28.87;100145.87;1688126;84;21334;-56
2022/08/22 07:03:40;;;;;;;7.60;1.60;;;;;;;31.32;28.88;100135.44;1694313;84;21535;-63
2022/08/22 07:06:15;;;;;;;5.37;1.50;;;;;;;31.25;29.33;100123.25;1692087;83;21500;-65
2022/08/22 07:08:43;;;;;;;7.15;1.72;;;;;;;31.31;28.86;100128.48;1684244;85;21029;-55
2022/08/22 07:11:20;;;;;;;7.08;1.70;;;;;;;31.16;29.06;100168.27;1686497;84;21037;-56
2022/08/22 07:14:03;;;;;;;6.65;1.65;;;;;;;31.08;29.28;100134.09;1686570;85;21487;-55
2022/08/22 07:16:49;;;;;;;6.47;1.72;;;;;;;31.13;29.05;100137.95;1686696;85;21056;-55
2022/08/22 07:19:32;;;;;;;4.53;1.75;;;;;;;31.09;29.32;100158.55;1686329;84;21030;-56
2022/08/22 07:22:02;;;;;;;5.92;1.52;;;;;;;31.10;29.54;100117.61;1686344;85;21678;-55
2022/08/22 07:24:30;;;;;;;7.75;2.02;;;;;;;31.11;29.39;100123.25;1685606;85;21665;-56
2022/08/22 07:27:12;;;;;;;6.33;1.72;;;;;;;31.15;29.57;100124.17;1685902;85;21859;-58
2022/08/22 07:30:08;;;;;;;2.80;1.32;;;;;;;31.24;29.00;100133.77;1628738;87;21565;-58
2022/08/22 07:32:52;;;;;;;5.87;1.82;;;;;;;31.25;29.40;100124.60;1686311;85;20895;-56
2022/08/22 07:35:42;;;;;;;7.45;2.00;;;;;;;31.32;29.43;100116.58;1686553;85;21022;-56
2022/08/22 07:38:41;;;;;;;10.20;1.90;;;;;;;31.41;29.19;100131.59;1686623;85;21074;-60
2022/08/22 07:41:19;;;;;;;9.50;2.15;;;;;;;31.44;29.51;100133.64;1687010;85;21105;-55
2022/08/22 07:43:57;;;;;;;12.82;1.92;;;;;;;31.67;29.68;100127.92;1686731;85;21447;-63
2022/08/22 07:46:29;;;;;;;4.33;1.40;;;;;;;31.93;29.39;100127.77;1684639;85;21838;-56
2022/08/22 07:49:07;;;;;;;5.40;1.80;;;;;;;32.13;29.14;100131.59;1686239;85;21492;-57
2022/08/22 07:51:45;;;;;;;5.00;1.60;;;;;;;32.31;28.02;100114.66;1685851;84;21292;-63
2022/08/22 07:54:15;;;;;;;6.37;1.82;;;;;;;32.25;27.84;100143.77;1661615;85;21236;-55
2022/08/22 07:56:46;;;;;;;8.60;1.90;;;;;;;32.12;27.87;100133.47;1686818;85;20991;-64
2022/08/22 07:59:16;;;;;;;4.08;1.77;;;;;;;32.04;28.58;100112.77;1685644;85;21797;-57
2022/08/22 08:01:45;;;;;;;8.78;1.70;;;;;;;32.14;28.96;100113.72;1686297;85;21189;-56
2022/08/22 08:04:16;;;;;;;5.35;1.80;;;;;;;32.46;29.09;100112.72;1686719;85;21221;-56
2022/08/22 08:06:51;;;;;;;4.37;1.42;;;;;;;32.74;28.32;100098.62;1689490;84;21235;-57
2022/08/22 08:09:18;;;;;;;6.05;1.30;;;;;;;32.88;28.27;100126.05;1693640;84;21038;-56
2022/08/22 08:11:46;;;;;;;5.80;1.87;;;;;;;32.92;27.12;100110.75;1694346;84;21396;-55
2022/08/22 08:14:15;;;;;;;5.17;1.75;;;;;;;32.84;27.36;100125.16;1674625;83;21338;-55
2022/08/22 08:17:09;;;;;;;4.95;1.37;;;;;;;32.84;27.27;100126.50;1694036;84;20962;-56
2022/08/22 08:19:39;;;;;;;4.80;1.45;;;;;;;32.87;26.28;100128.53;1689384;83;21359;-56
2022/08/22 08:22:06;;;;;;;4.10;1.40;;;;;;;32.86;25.96;100158.02;1693673;84;21054;-57
2022/08/22 08:24:38;;;;;;;6.20;1.95;;;;;;;32.72;26.01;100117.83;1694411;84;21048;-55
2022/08/22 08:29:58;;;;;;;11.48;1.80;;;;;;;32.78;26.05;100121.90;1677034;84;21069;-56
2022/08/22 08:32:32;;;;;;;5.92;1.87;;;;;;;32.61;25.89;100126.91;1694491;84;21901;-55
2022/08/22 08:35:07;;;;;;;3.80;1.47;;;;;;;32.56;25.71;100121.73;1694055;83;21022;-57
2022/08/22 08:37:53;;;;;;;4.55;1.50;;;;;;;32.55;26.31;100118.82;1680590;84;20970;-56
2022/08/22 08:40:56;;;;;;;4.75;1.95;;;;;;;32.69;26.23;100123.89;1667957;84;21544;-65
2022/08/22 08:44:02;;;;;;;5.50;1.50;;;;;;;32.97;26.62;100128.13;1694252;84;21846;-55
2022/08/22 08:46:56;;;;;;;4.58;1.30;;;;;;;33.22;25.25;100128.13;1694665;84;21654;-55
2022/08/22 08:49:53;;;;;;;6.92;1.72;;;;;;;33.06;25.56;100111.25;1693856;83;21015;-55
2022/08/22 08:52:37;;;;;;;5.47;1.77;;;;;;;33.11;25.73;100096.72;1694543;83;21002;-55
2022/08/22 08:55:50;;;;;;;5.62;1.20;;;;;;;33.28;26.19;100125.43;1613525;84;21051;-57
2022/08/22 08:58:59;;;;;;;3.95;1.00;;;;;;;33.46;26.35;100109.23;1693760;84;21018;-61
2022/08/22 09:01:55;;;;;;;4.05;1.35;;;;;;;33.71;25.06;100131.58;1694474;84;21277;-58
2022/08/22 09:04:57;;;;;;;5.08;1.60;;;;;;;33.62;25.20;100107.39;1694982;84;20989;-55
2022/08/22 09:07:42;;;;;;;6.45;1.40;;;;;;;33.48;24.66;100111.02;1695106;83;21446;-56
2022/08/22 09:10:36;;;;;;;6.85;1.70;;;;;;;33.36;25.48;100117.77;1694564;84;21531;-57
2022/08/22 09:13:20;;;;;;;4.17;1.30;;;;;;;33.48;24.91;100124.53;1694792;84;21151;-56
2022/08/22 09:16:08;;;;;;;2.98;1.40;;;;;;;33.42;25.03;100117.77;1660622;86;21181;-56
2022/08/22 09:19:15;;;;;;;3.98;1.65;;;;;;;33.34;25.37;100104.61;1660866;86;21783;-56
2022/08/22 09:22:13;;;;;;;6.15;1.95;;;;;;;33.38;25.26;100113.61;1694493;84;21934;-56
2022/08/22 09:25:12;;;;;;;6.45;1.70;;;;;;;33.47;25.40;100114.85;1695606;84;20977;-63
2022/08/22 09:28:01;;;;;;;7.28;1.77;;;;;;;33.54;24.81;100128.58;1674337;84;21001;-56
2022/08/22 09:30:45;;;;;;;4.00;1.60;;;;;;;33.54;24.82;100095.37;1694267;84;21249;-56
2022/08/22 09:33:16;;;;;;;5.72;1.50;;;;;;;33.57;24.70;100110.91;1694561;84;21025;-56
2022/08/22 09:35:58;;;;;;;;;;;;;;;33.69;25.07;100112.22;1697000;84;21013;-65
2022/08/22 09:38:54;;;;;;;6.08;1.60;;;;;;;33.80;24.60;100117.94;1695214;84;20218;-56
2022/08/22 09:41:54;;;;;;;4.97;1.20;;;;;;;33.70;24.56;100129.22;1660718;86;21614;-65
2022/08/22 09:44:57;;;;;;;4.33;1.35;;;;;;;33.52;24.59;100106.50;1660016;86;21822;-55
2022/08/22 09:47:35;;;;;;;11.83;1.98;;;;;;;33.36;24.68;100119.12;1657623;86;20999;-56
2022/08/22 09:50:16;;;;;;;7.22;1.52;;;;;;;33.14;25.04;100108.98;1694919;84;21441;-57
2022/08/22 09:53:13;;;;;;;7.40;1.70;;;;;;;33.00;25.12;100100.47;1694512;83;21507;-56
2022/08/22 09:56:07;;;;;;;6.53;1.27;;;;;;;32.91;25.28;100141.59;1694300;84;20981;-65
2022/08/22 09:59:00;;;;;;;6.40;1.55;;;;;;;32.81;24.80;100103.69;1694329;84;21839;-55
2022/08/22 10:01:40;;;;;;;9.43;1.55;;;;;;;32.88;25.13;100116.06;1694194;84;21005;-55
2022/08/22 10:04:37;;;;;;;7.35;1.85;;;;;;;33.04;23.81;100105.98;1694771;84;21033;-56
2022/08/22 10:07:52;;;;;;;6.97;1.62;;;;;;;33.03;23.31;100128.12;1694173;84;21010;-55
2022/08/22 10:10:52;;;;;;;3.40;1.50;;;;;;;32.88;23.35;100105.27;1693503;84;21413;-56
2022/08/22 10:13:40;;;;;;;13.53;1.98;;;;;;;32.68;23.34;100109.61;1642224;85;21401;-57
2022/08/22 10:16:49;;;;;;;4.65;1.55;;;;;;;32.69;23.02;100119.84;1660356;86;21055;-55
2022/08/22 10:19:48;;;;;;;11.55;2.40;;;;;;;32.75;22.96;100092.88;1660437;86;21529;-55
2022/08/22 10:22:40;;;;;;;4.78;1.80;;;;;;;32.75;22.96;100092.88;1693844;84;21124;-64
2022/08/22 10:25:25;;;;;;;5.78;1.70;;;;;;;33.07;22.29;100102.05;1694468;84;21089;-54
2022/08/22 10:28:15;;;;;;;4.47;1.33;;;;;;;33.12;22.58;100099.67;1693805;83;21590;-55
2022/08/22 10:31:20;;;;;;;8.75;1.85;;;;;;;33.18;22.35;100085.58;1695361;84;21499;-55
2022/08/22 10:34:15;;;;;;;5.50;1.75;;;;;;;33.22;22.05;100085.69;1695339;84;21010;-55
2022/08/22 10:37:11;;;;;;;5.60;1.85;;;;;;;33.23;22.01;100085.15;1694036;84;21448;-63
2022/08/22 10:39:46;;;;;;;4.55;1.60;;;;;;;33.20;22.52;100079.07;1695084;84;21570;-55
2022/08/22 10:42:29;;;;;;;5.22;1.70;;;;;;;33.15;22.59;100092.25;1693990;84;21254;-62
2022/08/22 10:45:32;;;;;;;6.35;2.22;;;;;;;33.06;22.33;100090.99;1694553;84;21014;-55
2022/08/22 10:48:17;;;;;;;6.62;1.82;;;;;;;32.86;22.57;100109.42;1694330;84;21644;-55
2022/08/22 10:50:49;;;;;;;8.33;2.17;;;;;;;32.86;22.57;100109.42;1694297;83;21014;-61
2022/08/22 10:53:34;;;;;;;7.42;1.77;;;;;;;32.72;21.96;100107.03;1694457;83;21367;-64
2022/08/22 10:56:25;;;;;;;6.58;1.62;;;;;;;32.64;22.37;100099.83;1694421;84;21868;-55
2022/08/22 10:59:25;;;;;;;7.10;1.50;;;;;;;32.58;22.25;100092.52;1693403;83;21484;-65
2022/08/22 11:02:06;;;;;;;5.85;1.62;;;;;;;32.58;22.25;100092.52;1648621;84;21061;-64
2022/08/22 11:05:12;;;;;;;3.00;1.57;;;;;;;32.60;21.98;100098.36;1693792;84;21488;-55
2022/08/22 11:07:48;;;;;;;5.80;1.20;;;;;;;32.60;22.18;100102.41;1688210;84;21077;-56
2022/08/22 11:11:00;;;;;;;8.45;2.15;;;;;;;32.58;21.73;100090.36;1694327;83;21084;-55
2022/08/22 11:13:41;;;;;;;5.80;1.75;;;;;;;32.48;22.10;100091.59;1694496;84;21930;-55
2022/08/22 11:16:14;;;;;;;;;;;;;;;32.45;22.27;100091.69;1657138;83;21001;-60
2022/08/22 11:19:23;;;;;;;6.62;1.47;;;;;;;32.45;23.08;100090.91;1693658;84;20209;-64
2022/08/22 11:22:22;;;;;;;4.97;1.40;;;;;;;32.60;23.21;100097.02;1693585;84;21038;-55
2022/08/22 11:25:04;;;;;;;5.28;1.50;;;;;;;33.03;22.45;100076.81;1694369;84;22271;-54
2022/08/22 11:28:06;;;;;;;6.65;1.92;;;;;;;33.55;21.68;100089.61;1693478;84;21377;-59
2022/08/22 11:31:02;;;;;;;5.87;1.82;;;;;;;33.89;20.73;100071.25;1694110;84;21062;-59
2022/08/22 11:33:37;;;;;;;6.75;2.00;;;;;;;33.92;20.46;100084.09;1694437;84;21000;-55
2022/08/22 11:36:25;;;;;;;5.10;1.62;;;;;;;33.71;21.02;100091.59;1694260;84;20938;-59
2022/08/22 11:39:13;;;;;;;5.67;1.57;;;;;;;33.50;21.21;100087.16;1694586;84;21892;-56
2022/08/22 11:42:09;;;;;;;4.60;1.90;;;;;;;33.32;21.51;100096.61;1691995;84;21056;-58
2022/08/22 11:44:53;;;;;;;6.58;2.08;;;;;;;33.42;21.78;100081.29;1694464;84;20966;-56
2022/08/22 11:47:24;;;;;;;4.95;1.50;;;;;;;33.55;21.80;100073.39;1693746;84;20942;-57
2022/08/22 11:49:59;;;;;;;5.78;1.75;;;;;;;33.58;21.73;100084.09;1693789;84;21887;-58
2022/08/22 11:52:53;;;;;;;8.75;1.82;;;;;;;33.55;21.58;100084.20;1694692;84;21246;-56
2022/08/22 11:55:36;;;;;;;8.68;2.10;;;;;;;33.68;22.07;100085.52;1615121;88;21467;-56
2022/08/22 11:58:36;;;;;;;4.60;1.90;;;;;;;33.90;21.46;100066.84;1677727;84;20983;-56
2022/08/22 12:01:13;;;;;;;5.25;2.00;;;;;;;34.05;21.43;100085.63;1588953;90;21509;-56
2022/08/22 12:03:51;;;;;;;5.03;1.90;;;;;;;34.17;21.47;100080.72;1694596;84;21056;-57
2022/08/22 12:06:36;;;;;;;4.22;1.87;;;;;;;34.30;21.82;100082.23;1693964;84;22514;-64
2022/08/22 12:09:26;;;;;;;6.22;2.17;;;;;;;34.49;21.10;100082.13;1688374;83;20999;-56
2022/08/22 12:12:26;;;;;;;5.00;2.02;;;;;;;34.54;21.31;100083.25;1686145;85;21907;-57
2022/08/22 12:15:19;;;;;;;6.47;2.12;;;;;;;34.59;21.12;100085.72;1685157;85;20950;-59
2022/08/22 12:18:25;;;;;;;5.75;1.65;;;;;;;34.59;21.13;100081.08;1686436;84;21083;-55
2022/08/22 12:21:19;;;;;;;11.25;1.90;;;;;;;34.59;21.47;100082.44;1686502;85;21289;-56
2022/08/22 12:24:06;;;;;;;4.67;2.02;;;;;;;34.60;20.91;100069.11;1685759;84;21002;-57
2022/08/22 12:26:39;;;;;;;8.45;1.72;;;;;;;34.61;21.41;100067.19;1686618;85;22164;-56
2022/08/22 12:29:32;;;;;;;6.05;1.82;;;;;;;34.72;21.14;100066.09;1685962;84;20987;-65
2022/08/22 12:32:37;;;;;;;3.90;1.35;;;;;;;34.76;20.91;100083.99;1686592;85;21081;-56
2022/08/22 12:35:33;;;;;;;5.75;1.80;;;;;;;34.67;20.97;100078.55;1686581;85;21180;-59
2022/08/22 12:38:25;;;;;;;3.77;1.80;;;;;;;34.73;21.46;100077.14;1686594;84;20903;-56
2022/08/22 12:41:34;;;;;;;9.35;1.87;;;;;;;34.82;21.25;100081.82;1686227;85;20974;-56
2022/08/22 12:44:27;;;;;;;8.65;2.02;;;;;;;34.87;21.45;100063.94;1686507;85;21746;-65
2022/08/22 12:47:47;;;;;;;7.30;1.50;;;;;;;34.80;21.64;100077.31;1686768;85;20982;-59
2022/08/22 12:50:42;;;;;;;5.12;2.15;;;;;;;34.53;21.07;100078.41;1686371;85;21164;-66